Skip Navigation LinksHome page > Weather > Current weather Skip Navigation Links

Current Weather

Indian Springs Af Aux., Indian Springs, Nev.

For information only: do not use for flight planning or navigation.
Latest weather
Observation time Wednesday, October 16, 2019 9:58 PM PDT
Local time Wednesday, October 16, 2019 10:55 PM PDT
Flight conditions Visual Meteorological Conditions
Winds
Wind direction East-Southeast (110°)
Wind speed 5 mph
Visibility 10 mi.
Sky condition
Ceiling unlimited
Sky clear
Temperature 63°F
Dewpoint 20°F
Altimeter 29.88 in.Hg
Derived measurements
Relative humidity 19%
Density altitude 3528 ft.
Sea-level pressure 29.79 in.Hg
Remarks
Fully automated report.
System requires maintenance.
Automated weather observing station with precipitation discriminator.
METAR KINS 170458Z AUTO 11004KT 10SM CLR 17/M06 A2988 RMK AO2 SLP087 T01741065 $

Settings

Location code

InnerDrive.Weather 4.0.6770.0 Release CLR 4.0.30319.42000
Copyright ©2018 Inner Drive Technology. All rights reserved. Portions Copyright ©1986-2018 David Braverman.

Find weather

Site navigation


Skip Navigation Links

Place info

Page info

PayPal - The safer, easier way to pay online!

Return home.

Copyright ©2019 Inner Drive Technology. Purveyors of fine, hand-crafted computer software. Page printed 2019-10-17T05:55:00 UTC.